Time;durP1;ratioP1;P1;durP2;ratioP2;P2;SDS_P1;SDS_P2;PMS_P1;PMS_P2;Temp;Humidity;BMP_temperature;BMP_pressure;BME280_temperature;BME280_humidity;BME280_pressure;Samples;Min_cycle;Max_cycle;Signal;HPM_P1;HPM_P2
2024/01/26 00:02:04;;;;;;;1999.90;999.90;;;8.80;99.90;;;;;;5015523;28;20037;-83
2024/01/26 00:04:33;;;;;;;1999.90;999.90;;;8.40;99.90;;;;;;5008988;28;20042;-83
2024/01/26 00:06:58;;;;;;;1999.90;999.90;;;8.40;99.90;;;;;;5018024;28;20080;-83
2024/01/26 00:09:25;;;;;;;1999.90;999.90;;;8.70;99.90;;;;;;5015028;28;20041;-82
2024/01/26 00:11:51;;;;;;;1999.90;999.90;;;9.10;99.90;;;;;;5018354;28;20033;-83
2024/01/26 00:14:16;;;;;;;1999.90;999.90;;;8.50;99.90;;;;;;5007876;28;20042;-83
2024/01/26 00:16:42;;;;;;;1999.90;999.90;;;9.30;99.90;;;;;;5001170;28;20041;-83
2024/01/26 00:19:08;;;;;;;1999.90;999.90;;;8.50;99.90;;;;;;5019541;28;20032;-83
2024/01/26 00:21:33;;;;;;;1999.90;999.90;;;8.90;99.90;;;;;;5037897;28;20045;-83
2024/01/26 00:23:59;;;;;;;1999.90;999.90;;;8.50;99.90;;;;;;5018857;28;20116;-83
2024/01/26 00:26:25;;;;;;;1999.90;999.90;;;8.90;99.90;;;;;;5023235;28;20033;-83
2024/01/26 00:28:51;;;;;;;1999.90;999.90;;;9.70;99.90;;;;;;5031724;28;20041;-83
2024/01/26 00:31:18;;;;;;;1999.90;999.90;;;8.60;99.90;;;;;;5015600;28;20033;-83
2024/01/26 00:33:45;;;;;;;1999.90;999.90;;;8.90;99.90;;;;;;5018548;28;20037;-83
2024/01/26 00:36:11;;;;;;;1999.90;999.90;;;8.60;99.90;;;;;;5032408;28;20041;-82
2024/01/26 00:38:37;;;;;;;1999.90;999.90;;;8.60;99.90;;;;;;5007501;28;20038;-83
2024/01/26 00:41:02;;;;;;;1999.90;999.90;;;9.20;99.90;;;;;;5011830;28;20044;-83
2024/01/26 00:43:28;;;;;;;1999.90;999.90;;;8.70;99.90;;;;;;5009942;28;20156;-82
2024/01/26 00:45:54;;;;;;;1999.90;999.90;;;8.70;99.90;;;;;;5014289;28;20129;-83
2024/01/26 00:48:20;;;;;;;1999.90;999.90;;;8.70;99.90;;;;;;5022962;28;20068;-83
2024/01/26 00:50:49;;;;;;;1999.90;999.90;;;8.70;99.90;;;;;;5013231;28;20049;-82
2024/01/26 00:53:16;;;;;;;1999.90;999.90;;;8.70;99.90;;;;;;5007947;28;20051;-83
2024/01/26 00:55:41;;;;;;;1999.90;999.90;;;8.80;99.90;;;;;;5030662;28;20037;-83
2024/01/26 00:58:07;;;;;;;1999.90;999.90;;;9.00;99.90;;;;;;5031968;28;20118;-83
2024/01/26 01:00:33;;;;;;;1999.90;999.90;;;8.80;99.90;;;;;;5014936;28;20618;-82
2024/01/26 01:02:58;;;;;;;1999.90;999.90;;;9.70;99.90;;;;;;5011037;28;20516;-82
2024/01/26 01:05:24;;;;;;;1999.90;999.90;;;9.40;99.90;;;;;;5020383;28;20034;-83
2024/01/26 01:07:50;;;;;;;1999.90;999.90;;;8.90;99.90;;;;;;5014040;28;20486;-83
2024/01/26 01:10:16;;;;;;;1999.90;999.90;;;9.10;99.90;;;;;;5004059;28;20064;-83
2024/01/26 01:12:43;;;;;;;1999.90;999.90;;;9.00;99.90;;;;;;5017621;28;20077;-83
2024/01/26 01:15:11;;;;;;;1999.90;999.90;;;9.20;99.90;;;;;;4989381;28;20038;-83
2024/01/26 01:17:42;;;;;;;1999.90;999.90;;;9.00;99.90;;;;;;4997652;28;20041;-82
2024/01/26 01:20:08;;;;;;;1999.90;999.90;;;9.00;99.90;;;;;;4998662;28;20060;-82
2024/01/26 01:22:35;;;;;;;1999.90;999.90;;;9.00;99.90;;;;;;4990070;28;20038;-82
2024/01/26 01:25:01;;;;;;;1999.90;999.90;;;9.00;99.90;;;;;;4982488;28;20048;-83
2024/01/26 01:27:27;;;;;;;1999.90;999.90;;;9.10;99.90;;;;;;4996443;28;20045;-83
2024/01/26 01:29:52;;;;;;;1999.90;999.90;;;9.00;99.90;;;;;;4989146;28;20042;-83
2024/01/26 01:32:18;;;;;;;1999.90;999.90;;;9.30;99.90;;;;;;5014004;28;20068;-83
2024/01/26 01:34:44;;;;;;;1999.90;999.90;;;9.60;99.90;;;;;;5009902;28;20038;-83
2024/01/26 01:37:09;;;;;;;1999.90;999.90;;;9.80;99.90;;;;;;4997431;28;20029;-83
2024/01/26 01:39:35;;;;;;;1999.90;999.90;;;9.10;99.90;;;;;;5013811;28;20576;-82
2024/01/26 01:42:02;;;;;;;1999.90;999.90;;;9.10;99.90;;;;;;5012394;28;20034;-83
2024/01/26 01:44:27;;;;;;;1999.90;999.90;;;9.10;99.90;;;;;;5006369;28;20045;-83
2024/01/26 01:46:53;;;;;;;1999.90;999.90;;;9.10;99.90;;;;;;4994239;28;20065;-83
2024/01/26 01:49:18;;;;;;;1999.90;999.90;;;9.10;99.90;;;;;;4996703;28;20494;-83
2024/01/26 01:51:48;;;;;;;1999.90;999.90;;;10.00;99.90;;;;;;4994024;28;20080;-82
2024/01/26 01:54:18;;;;;;;1999.90;999.90;;;9.20;99.90;;;;;;5012299;28;20045;-83
2024/01/26 01:56:44;;;;;;;1999.90;999.90;;;9.20;99.90;;;;;;5012976;28;20026;-83
2024/01/26 01:59:09;;;;;;;1999.90;999.90;;;9.20;99.90;;;;;;4990656;28;20033;-83
2024/01/26 02:01:37;;;;;;;1999.90;999.90;;;9.40;99.90;;;;;;5013231;28;20038;-82
2024/01/26 02:04:04;;;;;;;1999.90;999.90;;;9.10;99.90;;;;;;4996467;28;20745;-83
2024/01/26 02:06:30;;;;;;;1999.90;999.90;;;9.10;99.90;;;;;;4993300;28;20045;-83
2024/01/26 02:08:56;;;;;;;1999.90;999.90;;;9.20;99.90;;;;;;4990320;28;20129;-83
2024/01/26 02:11:23;;;;;;;1999.90;999.90;;;9.30;99.90;;;;;;4993645;28;20042;-83
2024/01/26 02:13:48;;;;;;;1999.90;999.90;;;9.30;99.90;;;;;;5002347;28;20064;-83
2024/01/26 02:16:14;;;;;;;1999.90;999.90;;;9.10;99.90;;;;;;5027418;28;20041;-82
2024/01/26 02:18:40;;;;;;;1999.90;999.90;;;9.20;99.90;;;;;;5026437;28;20036;-82
2024/01/26 02:21:06;;;;;;;1999.90;999.90;;;10.10;99.90;;;;;;5012524;28;20041;-82
2024/01/26 02:23:31;;;;;;;1999.90;999.90;;;9.20;99.90;;;;;;5028827;28;20099;-83
2024/01/26 02:25:57;;;;;;;1999.90;999.90;;;9.20;99.90;;;;;;5032924;28;20091;-83
2024/01/26 02:28:23;;;;;;;1999.90;999.90;;;9.20;99.90;;;;;;5006819;28;20042;-82
2024/01/26 02:30:48;;;;;;;1999.90;999.90;;;9.90;99.90;;;;;;5024248;28;20052;-83
2024/01/26 02:33:14;;;;;;;1999.90;999.90;;;10.30;99.90;;;;;;5009755;28;20437;-83
2024/01/26 02:35:40;;;;;;;1999.90;999.90;;;9.80;99.90;;;;;;5007679;28;20072;-83
2024/01/26 02:38:06;;;;;;;1999.90;999.90;;;9.30;99.90;;;;;;5027996;28;20092;-82
2024/01/26 02:40:31;;;;;;;1999.90;999.90;;;9.30;99.90;;;;;;5019140;28;20029;-83
2024/01/26 02:42:57;;;;;;;1999.90;999.90;;;9.30;99.90;;;;;;5006492;28;20037;-82
2024/01/26 02:45:26;;;;;;;1999.90;999.90;;;9.40;99.90;;;;;;5017526;28;20029;-82
2024/01/26 02:47:53;;;;;;;1999.90;999.90;;;9.40;99.90;;;;;;5015403;28;20037;-83
2024/01/26 02:50:19;;;;;;;1999.90;999.90;;;9.40;99.90;;;;;;5016548;28;20040;-83
2024/01/26 02:52:45;;;;;;;1999.90;999.90;;;9.40;99.90;;;;;;5029067;28;20034;-83
2024/01/26 02:55:10;;;;;;;1999.90;999.90;;;9.80;99.90;;;;;;5032318;28;20048;-83
2024/01/26 02:57:36;;;;;;;1999.90;999.90;;;9.40;99.90;;;;;;5027602;28;20060;-83
2024/01/26 03:00:02;;;;;;;1999.90;999.90;;;9.40;99.90;;;;;;5004338;28;20405;-83
2024/01/26 03:02:27;;;;;;;1999.90;999.90;;;9.40;99.90;;;;;;5012212;28;20033;-83
2024/01/26 03:04:53;;;;;;;1999.90;999.90;;;9.40;99.90;;;;;;5012164;28;20289;-83
2024/01/26 03:07:18;;;;;;;1999.90;999.90;;;9.40;99.90;;;;;;5032000;28;20033;-83
2024/01/26 03:09:44;;;;;;;1999.90;999.90;;;9.70;99.90;;;;;;5024332;28;20033;-83
2024/01/26 03:12:10;;;;;;;1999.90;999.90;;;9.40;99.90;;;;;;5021625;28;20132;-83
2024/01/26 03:14:35;;;;;;;1999.90;999.90;;;9.40;99.90;;;;;;5009260;28;20045;-83
2024/01/26 03:17:01;;;;;;;1999.90;999.90;;;9.40;99.90;;;;;;5015598;28;20105;-83
2024/01/26 03:19:26;;;;;;;1999.90;999.90;;;9.40;99.90;;;;;;5027771;28;20041;-83
2024/01/26 03:21:52;;;;;;;1999.90;999.90;;;9.80;99.90;;;;;;5008295;28;20045;-83
2024/01/26 03:24:17;;;;;;;1999.90;999.90;;;9.50;99.90;;;;;;5003574;28;20494;-83
2024/01/26 03:26:43;;;;;;;1999.90;999.90;;;9.40;99.90;;;;;;5030593;28;20044;-82
2024/01/26 03:29:09;;;;;;;1999.90;999.90;;;9.50;99.90;;;;;;5034400;28;20044;-83
2024/01/26 03:31:34;;;;;;;1999.90;999.90;;;9.60;99.90;;;;;;5010475;28;20036;-83
2024/01/26 03:34:00;;;;;;;1999.90;999.90;;;9.40;99.90;;;;;;5032003;28;20041;-83
2024/01/26 03:36:26;;;;;;;1999.90;999.90;;;9.50;99.90;;;;;;5015868;28;20466;-83
2024/01/26 03:38:54;;;;;;;1999.90;999.90;;;9.40;99.90;;;;;;5023504;28;20186;-83
2024/01/26 03:41:20;;;;;;;1999.90;999.90;;;10.20;99.90;;;;;;5010042;28;20072;-82
2024/01/26 03:43:46;;;;;;;1999.90;999.90;;;9.50;99.90;;;;;;5019388;28;20033;-83
2024/01/26 03:46:11;;;;;;;1999.90;999.90;;;9.50;99.90;;;;;;5019877;28;20437;-82
2024/01/26 03:48:37;;;;;;;1999.90;999.90;;;9.60;99.90;;;;;;5018946;28;20501;-83
2024/01/26 03:51:03;;;;;;;1999.90;999.90;;;9.40;99.90;;;;;;5032765;28;20041;-83
2024/01/26 03:53:28;;;;;;;1999.90;999.90;;;9.50;99.90;;;;;;5008760;28;20101;-83
2024/01/26 03:55:57;;;;;;;1999.90;999.90;;;9.50;99.90;;;;;;5026787;28;20521;-82
2024/01/26 03:58:23;;;;;;;1999.90;999.90;;;9.50;99.90;;;;;;5033193;28;20036;-83
2024/01/26 04:00:50;;;;;;;1999.90;999.90;;;9.50;99.90;;;;;;5019484;28;20037;-83
2024/01/26 04:03:16;;;;;;;1999.90;999.90;;;9.60;99.90;;;;;;5032453;28;20046;-83
2024/01/26 04:05:42;;;;;;;1999.90;999.90;;;10.00;99.90;;;;;;5010352;28;20037;-83
2024/01/26 04:08:08;;;;;;;1999.90;999.90;;;10.10;99.90;;;;;;5032251;28;20037;-83
2024/01/26 04:10:35;;;;;;;1999.90;999.90;;;9.60;99.90;;;;;;5010400;28;20099;-82
2024/01/26 04:13:00;;;;;;;1999.90;999.90;;;9.60;99.90;;;;;;5019696;28;20056;-84
2024/01/26 04:15:27;;;;;;;1999.90;999.90;;;10.30;99.90;;;;;;5028523;28;20069;-82
2024/01/26 04:17:53;;;;;;;1999.90;999.90;;;9.60;99.90;;;;;;5013785;28;20040;-83
2024/01/26 04:20:19;;;;;;;1999.90;999.90;;;9.60;99.90;;;;;;5018357;28;20064;-82
2024/01/26 04:22:45;;;;;;;1999.90;999.90;;;9.60;99.90;;;;;;5013467;28;20136;-83
2024/01/26 04:25:11;;;;;;;1999.90;999.90;;;9.70;99.90;;;;;;5018173;28;20048;-83
2024/01/26 04:27:37;;;;;;;1999.90;999.90;;;9.70;99.90;;;;;;5012599;28;20367;-83
2024/01/26 04:30:04;;;;;;;1999.90;999.90;;;10.60;99.90;;;;;;5035504;28;20091;-83
2024/01/26 04:32:29;;;;;;;1999.90;999.90;;;9.70;99.90;;;;;;5008839;28;20037;-82
2024/01/26 04:34:55;;;;;;;1999.90;999.90;;;10.60;99.90;;;;;;5005067;28;20379;-83
2024/01/26 04:37:21;;;;;;;1999.90;999.90;;;9.70;99.90;;;;;;5005525;28;20092;-83
2024/01/26 04:39:47;;;;;;;1999.90;999.90;;;10.40;99.90;;;;;;5008135;28;20121;-82
2024/01/26 04:42:12;;;;;;;1999.90;999.90;;;10.60;99.90;;;;;;5026081;28;20069;-83
2024/01/26 04:44:38;;;;;;;1999.90;999.90;;;9.80;99.90;;;;;;5004506;28;20056;-82
2024/01/26 04:47:04;;;;;;;1999.90;999.90;;;10.30;99.90;;;;;;5004956;28;20553;-82
2024/01/26 04:49:29;;;;;;;1999.90;999.90;;;9.80;99.90;;;;;;5004695;28;20053;-83
2024/01/26 04:51:56;;;;;;;1999.90;999.90;;;10.50;99.90;;;;;;5031579;28;20041;-82
2024/01/26 04:54:22;;;;;;;1999.90;999.90;;;9.80;99.90;;;;;;5016071;28;20042;-83
2024/01/26 04:56:50;;;;;;;1999.90;999.90;;;10.50;99.90;;;;;;5012591;28;20065;-83
2024/01/26 04:59:16;;;;;;;1999.90;999.90;;;9.90;99.90;;;;;;5033027;28;20037;-84
2024/01/26 05:01:41;;;;;;;1999.90;999.90;;;9.90;99.90;;;;;;5014297;28;20129;-83
2024/01/26 05:04:07;;;;;;;1999.90;999.90;;;9.90;99.90;;;;;;5017845;28;20048;-83
2024/01/26 05:06:33;;;;;;;1999.90;999.90;;;9.90;99.90;;;;;;5013518;28;20049;-83
2024/01/26 05:08:58;;;;;;;1999.90;999.90;;;9.90;99.90;;;;;;5032337;28;20063;-83
2024/01/26 05:11:24;;;;;;;1999.90;999.90;;;9.90;99.90;;;;;;5025802;28;20033;-83
2024/01/26 05:13:50;;;;;;;1999.90;999.90;;;9.90;99.90;;;;;;5005387;28;20056;-83
2024/01/26 05:16:16;;;;;;;1999.90;999.90;;;10.90;99.90;;;;;;5003119;28;20053;-83
2024/01/26 05:18:42;;;;;;;1999.90;999.90;;;10.00;99.90;;;;;;5003217;28;20037;-83
2024/01/26 05:21:07;;;;;;;1999.90;999.90;;;10.00;99.90;;;;;;5004232;28;20048;-83
2024/01/26 05:23:33;;;;;;;1999.90;999.90;;;10.00;99.90;;;;;;4987231;28;20087;-83
2024/01/26 05:25:59;;;;;;;1999.90;999.90;;;10.00;99.90;;;;;;4986312;28;20082;-83
2024/01/26 05:28:24;;;;;;;1999.90;999.90;;;10.10;99.90;;;;;;5002531;28;20038;-83
2024/01/26 05:30:50;;;;;;;1999.90;999.90;;;10.40;99.90;;;;;;5001772;28;20044;-83
2024/01/26 05:33:16;;;;;;;1999.90;999.90;;;10.20;99.90;;;;;;5000519;28;20034;-83
2024/01/26 05:35:41;;;;;;;1999.90;999.90;;;10.10;99.90;;;;;;4985702;28;20095;-83
2024/01/26 05:38:07;;;;;;;1999.90;999.90;;;10.20;99.90;;;;;;5002280;28;20515;-83
2024/01/26 05:40:32;;;;;;;1999.90;999.90;;;10.20;99.90;;;;;;5001993;28;20026;-83
2024/01/26 05:42:58;;;;;;;1999.90;999.90;;;10.20;99.90;;;;;;5001510;28;20213;-83
2024/01/26 05:45:24;;;;;;;1999.90;999.90;;;10.30;99.90;;;;;;4985508;28;20045;-83
2024/01/26 05:47:50;;;;;;;1999.90;999.90;;;10.30;99.90;;;;;;4995599;28;20037;-83
2024/01/26 05:50:16;;;;;;;1999.90;999.90;;;10.30;99.90;;;;;;4999600;28;20038;-83
2024/01/26 05:52:41;;;;;;;1999.90;999.90;;;10.70;99.90;;;;;;4984207;28;20046;-83
2024/01/26 05:55:08;;;;;;;1999.90;999.90;;;10.30;99.90;;;;;;4984880;28;20042;-83
2024/01/26 05:57:34;;;;;;;1999.90;999.90;;;10.30;99.90;;;;;;4985893;28;20460;-83
2024/01/26 05:59:59;;;;;;;1999.90;999.90;;;10.90;99.90;;;;;;5000815;28;20061;-83
2024/01/26 06:02:26;;;;;;;1999.90;999.90;;;10.30;99.90;;;;;;5002282;28;20069;-83
2024/01/26 06:04:52;;;;;;;1999.90;999.90;;;10.70;99.90;;;;;;4986013;28;20033;-83
2024/01/26 06:07:17;;;;;;;1999.90;999.90;;;10.70;99.90;;;;;;4984959;28;20041;-83
2024/01/26 06:09:43;;;;;;;1999.90;999.90;;;10.30;99.90;;;;;;5000849;28;20518;-83
2024/01/26 06:12:08;;;;;;;1999.90;999.90;;;10.30;99.90;;;;;;4980750;28;20107;-83
2024/01/26 06:14:37;;;;;;;1999.90;999.90;;;10.30;99.90;;;;;;4995070;28;20045;-83
2024/01/26 06:17:03;;;;;;;1999.90;999.90;;;10.40;99.90;;;;;;4985629;28;20034;-83
2024/01/26 06:19:29;;;;;;;1999.90;999.90;;;10.40;99.90;;;;;;4999737;28;20044;-83
2024/01/26 06:21:55;;;;;;;1999.90;999.90;;;10.40;99.90;;;;;;4982633;28;20038;-83
2024/01/26 06:24:21;;;;;;;1999.90;999.90;;;10.90;99.90;;;;;;4984266;28;20068;-83
2024/01/26 06:26:46;;;;;;;1999.90;999.90;;;10.60;99.90;;;;;;5001248;28;20222;-83
2024/01/26 06:29:12;;;;;;;1999.90;999.90;;;10.40;99.90;;;;;;4984317;28;20391;-83
2024/01/26 06:31:37;;;;;;;1999.90;999.90;;;10.40;99.90;;;;;;4984782;28;20121;-83
2024/01/26 06:34:03;;;;;;;1999.90;999.90;;;10.50;99.90;;;;;;4985967;28;20073;-83
2024/01/26 06:36:29;;;;;;;1999.90;999.90;;;10.40;99.90;;;;;;4994596;28;20056;-82
2024/01/26 06:38:54;;;;;;;1999.90;999.90;;;10.40;99.90;;;;;;4990973;28;20048;-82
2024/01/26 06:41:20;;;;;;;1999.90;999.90;;;10.40;99.90;;;;;;4987507;28;20049;-82
2024/01/26 06:43:51;;;;;;;1999.90;999.90;;;10.90;99.90;;;;;;4988019;28;20038;-82
2024/01/26 06:46:23;;;;;;;1999.90;999.90;;;11.10;99.90;;;;;;4987899;28;20056;-82
2024/01/26 06:48:51;;;;;;;1999.90;999.90;;;10.70;99.90;;;;;;4985476;28;20049;-83
2024/01/26 06:51:17;;;;;;;1999.90;999.90;;;10.50;99.90;;;;;;5003245;28;20034;-83
2024/01/26 06:53:43;;;;;;;1999.90;999.90;;;10.50;99.90;;;;;;4990919;28;20053;-83
2024/01/26 06:56:08;;;;;;;1999.90;999.90;;;10.50;99.90;;;;;;5008728;28;20111;-83
2024/01/26 06:58:34;;;;;;;1999.90;999.90;;;10.10;99.90;;;;;;4990792;28;20042;-83
2024/01/26 07:01:00;;;;;;;1999.90;999.90;;;11.00;99.90;;;;;;4994330;28;20042;-82
2024/01/26 07:03:26;;;;;;;1999.90;999.90;;;10.50;99.90;;;;;;5009698;28;20529;-82
2024/01/26 07:05:52;;;;;;;1999.90;999.90;;;11.00;99.90;;;;;;4993386;28;20430;-82
2024/01/26 07:08:18;;;;;;;1999.90;999.90;;;10.50;99.90;;;;;;4992651;28;20061;-83
2024/01/26 07:10:44;;;;;;;1999.90;999.90;;;11.20;99.90;;;;;;5008607;28;20479;-83
2024/01/26 07:13:09;;;;;;;1999.90;999.90;;;10.60;99.90;;;;;;5013197;28;20061;-83
2024/01/26 07:15:35;;;;;;;1999.90;999.90;;;10.70;99.90;;;;;;5021773;28;20045;-83
2024/01/26 07:18:02;;;;;;;1999.90;999.90;;;10.50;99.90;;;;;;5015088;28;20077;-83
2024/01/26 07:20:28;;;;;;;1999.90;999.90;;;10.50;99.90;;;;;;5022931;28;20041;-83
2024/01/26 07:22:53;;;;;;;1999.90;999.90;;;10.70;99.90;;;;;;5016057;28;20068;-83
2024/01/26 07:25:19;;;;;;;1999.90;999.90;;;11.40;99.90;;;;;;5015459;28;20052;-84
2024/01/26 07:27:46;;;;;;;1999.90;999.90;;;10.60;99.90;;;;;;5014928;28;20038;-83
2024/01/26 07:30:13;;;;;;;1999.90;999.90;;;10.60;99.90;;;;;;5014180;28;20116;-84
2024/01/26 07:32:39;;;;;;;1999.90;999.90;;;10.60;99.90;;;;;;5014880;28;20033;-83
2024/01/26 07:35:06;;;;;;;1999.90;999.90;;;11.10;99.90;;;;;;5014997;28;20044;-83
2024/01/26 07:37:32;;;;;;;1999.90;999.90;;;10.60;99.90;;;;;;5014599;28;20069;-83
2024/01/26 07:39:58;;;;;;;1999.90;999.90;;;11.10;99.90;;;;;;5029956;28;20116;-83
2024/01/26 07:42:24;;;;;;;1999.90;999.90;;;10.70;99.90;;;;;;5034999;28;20450;-83
2024/01/26 07:44:50;;;;;;;1999.90;999.90;;;10.70;99.90;;;;;;5014258;28;20052;-83
2024/01/26 07:47:15;;;;;;;1999.90;999.90;;;10.80;99.90;;;;;;4996773;28;20083;-83
2024/01/26 07:49:41;;;;;;;1999.90;999.90;;;10.90;99.90;;;;;;5012673;28;20044;-83
2024/01/26 07:52:07;;;;;;;1999.90;999.90;;;10.70;99.90;;;;;;5012643;28;20076;-83
2024/01/26 07:54:32;;;;;;;1999.90;999.90;;;11.10;99.90;;;;;;5012817;28;20048;-82
2024/01/26 07:56:58;;;;;;;1999.90;999.90;;;11.20;99.90;;;;;;5013657;28;20037;-83
2024/01/26 07:59:24;;;;;;;1999.90;999.90;;;11.10;99.90;;;;;;4997392;28;20064;-82
2024/01/26 08:01:49;;;;;;;1999.90;999.90;;;11.60;99.90;;;;;;5013799;28;20120;-82
2024/01/26 08:04:15;;;;;;;1999.90;999.90;;;11.00;99.90;;;;;;5013392;28;20038;-83
2024/01/26 08:06:41;;;;;;;1999.90;999.90;;;10.60;99.90;;;;;;5013373;28;20039;-82
2024/01/26 08:09:10;;;;;;;1999.90;999.90;;;10.70;99.90;;;;;;5030573;28;20073;-83
2024/01/26 08:11:36;;;;;;;1999.90;999.90;;;10.60;99.90;;;;;;5011860;28;20037;-83
2024/01/26 08:14:02;;;;;;;1999.90;999.90;;;10.60;99.90;;;;;;5010222;28;20124;-82
2024/01/26 08:16:28;;;;;;;1999.90;999.90;;;10.60;99.90;;;;;;5010214;28;20096;-81
2024/01/26 08:18:54;;;;;;;1999.90;999.90;;;10.60;99.90;;;;;;5008570;28;20130;-81
2024/01/26 08:21:20;;;;;;;1999.90;999.90;;;10.80;99.90;;;;;;5008895;28;20049;-82
2024/01/26 08:23:46;;;;;;;1999.90;999.90;;;10.70;99.90;;;;;;5010425;28;20062;-81
2024/01/26 08:26:12;;;;;;;1999.90;999.90;;;11.30;99.90;;;;;;5013301;28;20053;-81
2024/01/26 08:28:37;;;;;;;1999.90;999.90;;;10.80;99.90;;;;;;5012478;28;20038;-81
2024/01/26 08:31:04;;;;;;;1999.90;999.90;;;10.60;99.90;;;;;;5011661;28;20049;-81
2024/01/26 08:33:30;;;;;;;1999.90;999.90;;;10.60;99.90;;;;;;5012474;28;20042;-81
2024/01/26 08:35:56;;;;;;;1999.90;999.90;;;11.10;99.90;;;;;;5013085;28;20061;-81
2024/01/26 08:38:21;;;;;;;1999.90;999.90;;;10.70;99.90;;;;;;5012938;28;20037;-81
2024/01/26 08:40:47;;;;;;;1999.90;999.90;;;10.80;99.90;;;;;;5029750;28;20029;-81
2024/01/26 08:43:13;;;;;;;1999.90;999.90;;;10.70;99.90;;;;;;5029959;28;20068;-82
2024/01/26 08:45:38;;;;;;;1999.90;999.90;;;10.90;99.90;;;;;;5024616;28;20132;-82
2024/01/26 08:48:04;;;;;;;1999.90;999.90;;;10.90;99.90;;;;;;5019729;28;20033;-82
2024/01/26 08:50:30;;;;;;;1999.90;999.90;;;10.70;99.90;;;;;;5013441;28;20041;-82
2024/01/26 08:52:56;;;;;;;1999.90;999.90;;;10.70;99.90;;;;;;5014781;28;20045;-82
2024/01/26 08:55:21;;;;;;;1999.90;999.90;;;11.50;99.90;;;;;;5014278;28;20182;-82
2024/01/26 08:57:48;;;;;;;1999.90;999.90;;;10.70;99.90;;;;;;5030322;28;20061;-82
2024/01/26 09:00:15;;;;;;;1999.90;999.90;;;10.80;99.90;;;;;;5013190;28;20121;-82
2024/01/26 09:02:41;;;;;;;1999.90;999.90;;;10.70;99.90;;;;;;5011118;28;20040;-81
2024/01/26 09:05:09;;;;;;;1999.90;999.90;;;11.20;99.90;;;;;;5010170;28;20097;-81
2024/01/26 09:07:35;;;;;;;1999.90;999.90;;;10.70;99.90;;;;;;5009296;28;20061;-82
2024/01/26 09:10:01;;;;;;;1999.90;999.90;;;10.70;99.90;;;;;;5010061;28;20049;-82
2024/01/26 09:12:26;;;;;;;1999.90;999.90;;;10.70;99.90;;;;;;5024927;28;20040;-83
2024/01/26 09:14:52;;;;;;;1999.90;999.90;;;10.70;99.90;;;;;;5009750;28;20054;-82
2024/01/26 09:17:18;;;;;;;1999.90;999.90;;;10.50;99.90;;;;;;4994053;28;20075;-82
2024/01/26 09:19:43;;;;;;;1999.90;999.90;;;10.70;99.90;;;;;;4994897;28;20066;-82
2024/01/26 09:22:09;;;;;;;1999.90;999.90;;;11.00;99.90;;;;;;4992138;28;20049;-81
2024/01/26 09:24:35;;;;;;;1999.90;999.90;;;11.60;99.90;;;;;;5008353;28;20052;-81
2024/01/26 09:27:01;;;;;;;1999.90;999.90;;;11.40;99.90;;;;;;4990746;28;20042;-81
2024/01/26 09:29:27;;;;;;;1999.90;999.90;;;10.60;99.90;;;;;;4989087;28;20054;-82
2024/01/26 09:31:57;;;;;;;1999.90;999.90;;;10.50;99.90;;;;;;4989046;28;20042;-82
2024/01/26 09:34:26;;;;;;;1999.90;999.90;;;10.50;99.90;;;;;;5009595;28;20042;-82
2024/01/26 09:36:52;;;;;;;1999.90;999.90;;;10.20;99.90;;;;;;5008670;28;20041;-82
2024/01/26 09:39:18;;;;;;;1999.90;999.90;;;9.90;99.90;;;;;;4992503;28;20068;-82
2024/01/26 09:41:44;;;;;;;1999.90;999.90;;;9.90;99.90;;;;;;5008578;28;20577;-82
2024/01/26 09:44:10;;;;;;;1999.90;999.90;;;9.60;99.90;;;;;;4992062;28;20060;-82
2024/01/26 09:46:36;;;;;;;1999.90;999.90;;;10.30;99.90;;;;;;4992283;28;20068;-82
2024/01/26 09:49:06;;;;;;;1999.90;999.90;;;10.00;99.90;;;;;;4991860;28;20048;-82
2024/01/26 09:51:32;;;;;;;1999.90;999.90;;;9.50;99.90;;;;;;4991274;28;20077;-82
2024/01/26 09:54:00;;;;;;;1999.90;999.90;;;9.40;99.90;;;;;;4992055;28;20513;-83
2024/01/26 09:56:28;;;;;;;1999.90;999.90;;;9.10;99.90;;;;;;4992944;28;20042;-83
2024/01/26 09:58:54;;;;;;;1999.90;999.90;;;9.30;99.90;;;;;;4990449;28;20041;-83
2024/01/26 10:01:21;;;;;;;1999.90;999.90;;;9.90;99.90;;;;;;4990110;28;20080;-83
2024/01/26 10:03:48;;;;;;;1999.90;999.90;;;9.20;99.90;;;;;;4990659;28;20041;-82
2024/01/26 10:06:14;;;;;;;1999.90;999.90;;;9.40;99.90;;;;;;4989804;28;20034;-82
2024/01/26 10:08:41;;;;;;;1999.90;999.90;;;9.00;99.90;;;;;;4990807;28;20034;-82
2024/01/26 10:11:06;;;;;;;1999.90;999.90;;;9.30;99.90;;;;;;4989002;28;20041;-82
2024/01/26 10:13:32;;;;;;;1999.90;999.90;;;9.60;99.90;;;;;;5014115;28;20058;-82
2024/01/26 10:16:09;;;;;;;1999.90;999.90;;;8.80;99.90;;;;;;5006696;28;20467;-82
2024/01/26 10:18:43;;;;;;;1999.90;999.90;;;8.80;99.90;;;;;;4991531;28;20429;-83
2024/01/26 10:21:10;;;;;;;1999.90;999.90;;;8.70;99.90;;;;;;4990329;28;20038;-82
2024/01/26 10:23:36;;;;;;;1999.90;999.90;;;9.10;99.90;;;;;;5012580;28;20039;-82
2024/01/26 10:26:01;;;;;;;1999.90;999.90;;;8.70;99.90;;;;;;5009040;28;20100;-82
2024/01/26 10:28:30;;;;;;;1999.90;999.90;;;8.80;99.90;;;;;;4982339;28;20038;-82
2024/01/26 10:30:56;;;;;;;1999.90;999.90;;;8.70;99.90;;;;;;4984201;28;20498;-82
2024/01/26 10:33:24;;;;;;;1999.90;999.90;;;9.20;99.90;;;;;;4999567;28;20522;-82
2024/01/26 10:35:56;;;;;;;1999.90;999.90;;;8.70;99.90;;;;;;5013785;28;20042;-82
2024/01/26 10:38:22;;;;;;;1999.90;999.90;;;9.40;99.90;;;;;;4993933;28;20029;-82
2024/01/26 10:40:50;;;;;;;1999.90;999.90;;;8.60;99.90;;;;;;4992470;28;20045;-82
2024/01/26 10:43:18;;;;;;;1999.90;999.90;;;8.60;99.90;;;;;;4995852;28;20029;-82
2024/01/26 10:45:44;;;;;;;1999.90;999.90;;;9.40;99.90;;;;;;4983256;28;20029;-82
2024/01/26 10:48:11;;;;;;;1999.90;999.90;;;8.60;99.90;;;;;;4994663;28;20046;-82
2024/01/26 10:50:37;;;;;;;1999.90;999.90;;;8.60;99.90;;;;;;5010694;28;20083;-82
2024/01/26 10:53:07;;;;;;;1999.90;999.90;;;8.60;99.90;;;;;;5002482;28;20061;-82
2024/01/26 10:55:32;;;;;;;1999.90;999.90;;;8.60;99.90;;;;;;5009736;28;20042;-82
2024/01/26 10:58:00;;;;;;;1999.90;999.90;;;9.40;99.90;;;;;;5012868;28;20545;-81
2024/01/26 11:00:26;;;;;;;1999.90;999.90;;;9.00;99.90;;;;;;5012615;28;20037;-82
2024/01/26 11:02:53;;;;;;;1999.90;999.90;;;8.50;99.90;;;;;;4987577;28;20033;-82
2024/01/26 11:05:18;;;;;;;1999.90;999.90;;;8.70;99.90;;;;;;4995293;28;20089;-82
2024/01/26 11:07:44;;;;;;;1999.90;999.90;;;8.70;99.90;;;;;;5002854;28;20042;-82
2024/01/26 11:10:19;;;;;;;1999.90;999.90;;;9.30;99.90;;;;;;4999146;28;20037;-82
2024/01/26 11:12:45;;;;;;;1999.90;999.90;;;9.30;99.90;;;;;;5017672;28;20049;-82
2024/01/26 11:15:13;;;;;;;1999.90;999.90;;;9.00;99.90;;;;;;5003426;28;20050;-83
2024/01/26 11:17:58;;;;;;;1999.90;999.90;;;8.60;99.90;;;;;;5009608;28;20040;-82
2024/01/26 11:20:30;;;;;;;1999.90;999.90;;;8.60;99.90;;;;;;5020595;28;20037;-82
2024/01/26 11:23:06;;;;;;;1999.90;999.90;;;8.80;99.90;;;;;;4994763;28;20398;-82
2024/01/26 11:25:34;;;;;;;1999.90;999.90;;;8.70;99.90;;;;;;5003919;28;20521;-82
2024/01/26 11:28:03;;;;;;;1999.90;999.90;;;8.60;99.90;;;;;;5002693;28;20120;-82
2024/01/26 11:30:30;;;;;;;1999.90;999.90;;;8.70;99.90;;;;;;4998326;28;20038;-82
2024/01/26 11:32:56;;;;;;;1999.90;999.90;;;8.60;99.90;;;;;;5002088;28;20125;-82
2024/01/26 11:35:23;;;;;;;1999.90;999.90;;;8.60;99.90;;;;;;5007361;28;20410;-82
2024/01/26 11:37:52;;;;;;;1999.90;999.90;;;9.30;99.90;;;;;;5004891;28;20029;-82
2024/01/26 11:40:21;;;;;;;1999.90;999.90;;;8.70;99.90;;;;;;5002905;28;20048;-83
2024/01/26 11:42:47;;;;;;;1999.90;999.90;;;8.70;99.90;;;;;;5003736;28;20138;-83
2024/01/26 11:45:32;;;;;;;1999.90;999.90;;;8.70;99.90;;;;;;5016858;28;20409;-83
2024/01/26 11:47:57;;;;;;;1999.90;999.90;;;8.70;99.90;;;;;;5012270;28;20126;-82
2024/01/26 11:50:26;;;;;;;1999.90;999.90;;;9.20;99.90;;;;;;5030877;28;20497;-82
2024/01/26 11:52:52;;;;;;;1999.90;999.90;;;8.70;99.90;;;;;;5013902;28;20094;-82
2024/01/26 11:55:17;;;;;;;1999.90;999.90;;;9.60;99.90;;;;;;5038039;28;20444;-82
2024/01/26 11:57:43;;;;;;;1999.90;999.90;;;9.50;99.90;;;;;;5010279;28;20037;-82
2024/01/26 12:00:10;;;;;;;1999.90;999.90;;;9.00;99.90;;;;;;5030712;28;20120;-82